Time;durP1;ratioP1;P1;durP2;ratioP2;P2;SDS_P1;SDS_P2;PMS_P1;PMS_P2;Temp;Humidity;BMP_temperature;BMP_pressure;BME280_temperature;BME280_humidity;BME280_pressure;Samples;Min_cycle;Max_cycle;Signal;HPM_P1;HPM_P2
2023/03/10 00:02:17;;;;;;;11.17;4.20;;;;;;;;;;5001061;28;20573;-64
2023/03/10 00:05:02;;;;;;;12.90;4.90;;;;;;;;;;5002861;28;20449;-64
2023/03/10 00:07:29;;;;;;;12.47;5.10;;;;;;;;;;4996463;28;20461;-64
2023/03/10 00:09:56;;;;;;;12.37;4.53;;;;;;;;;;5002314;28;20489;-64
2023/03/10 00:12:26;;;;;;;12.67;4.40;;;;;;;;;;4990587;28;20519;-64
2023/03/10 00:14:53;;;;;;;11.90;5.13;;;;;;;;;;4985196;28;21005;-64
2023/03/10 00:17:38;;;;;;;11.30;5.03;;;;;;;;;;4970639;28;20447;-64
2023/03/10 00:20:10;;;;;;;11.63;4.33;;;;;;;;;;4981795;28;20459;-64
2023/03/10 00:22:37;;;;;;;13.83;5.07;;;;;;;;;;4983190;28;20541;-64
2023/03/10 00:25:05;;;;;;;12.77;4.87;;;;;;;;;;4984010;28;20435;-65
2023/03/10 00:27:32;;;;;;;11.53;4.50;;;;;;;;;;4982481;28;20459;-64
2023/03/10 00:29:58;;;;;;;12.47;4.80;;;;;;;;;;4983561;28;31876;-64
2023/03/10 00:32:26;;;;;;;11.17;4.53;;;;;;;;;;4989563;28;20534;-64
2023/03/10 00:34:53;;;;;;;13.87;4.80;;;;;;;;;;4987906;28;20470;-64
2023/03/10 00:37:20;;;;;;;10.57;4.67;;;;;;;;;;5001893;28;21035;-64
2023/03/10 00:39:51;;;;;;;12.50;5.00;;;;;;;;;;5000461;28;20477;-64
2023/03/10 00:42:19;;;;;;;12.10;4.57;;;;;;;;;;5003110;28;20474;-64
2023/03/10 00:44:46;;;;;;;9.57;4.60;;;;;;;;;;4990534;28;20545;-64
2023/03/10 00:47:14;;;;;;;9.83;4.83;;;;;;;;;;4998225;28;20466;-64
2023/03/10 00:49:43;;;;;;;11.80;5.40;;;;;;;;;;4985072;28;20469;-64
2023/03/10 00:52:10;;;;;;;10.63;4.73;;;;;;;;;;4999656;28;20462;-64
2023/03/10 00:54:38;;;;;;;12.63;4.93;;;;;;;;;;5003562;28;23795;-65
2023/03/10 00:57:05;;;;;;;12.07;5.23;;;;;;;;;;4985155;28;20470;-64
2023/03/10 00:59:31;;;;;;;9.00;4.77;;;;;;;;;;5006201;28;21104;-64
2023/03/10 01:02:15;;;;;;;12.73;5.10;;;;;;;;;;4999693;28;20519;-64
2023/03/10 01:04:42;;;;;;;9.13;4.50;;;;;;;;;;5007510;28;20466;-65
2023/03/10 01:07:08;;;;;;;9.50;4.50;;;;;;;;;;4991018;28;20523;-64
2023/03/10 01:09:35;;;;;;;7.73;3.80;;;;;;;;;;4985249;28;20467;-64
2023/03/10 01:12:02;;;;;;;9.10;4.40;;;;;;;;;;4981813;28;20469;-64
2023/03/10 01:14:30;;;;;;;8.07;3.50;;;;;;;;;;4985860;28;31735;-64
2023/03/10 01:16:58;;;;;;;6.20;3.43;;;;;;;;;;4996401;28;20451;-64
2023/03/10 01:19:25;;;;;;;7.23;3.40;;;;;;;;;;4979512;28;21044;-65
2023/03/10 01:21:52;;;;;;;7.73;4.03;;;;;;;;;;4986592;28;20458;-64
2023/03/10 01:24:19;;;;;;;9.03;3.27;;;;;;;;;;4983851;28;20463;-65
2023/03/10 01:26:45;;;;;;;7.10;3.50;;;;;;;;;;4987312;28;20515;-64
2023/03/10 01:29:12;;;;;;;6.57;3.70;;;;;;;;;;4984078;28;20550;-65
2023/03/10 01:31:40;;;;;;;7.83;3.60;;;;;;;;;;4982009;28;20464;-64
2023/03/10 01:34:07;;;;;;;8.53;3.60;;;;;;;;;;4980527;28;20451;-64
2023/03/10 01:36:34;;;;;;;7.37;3.23;;;;;;;;;;4978529;28;20810;-64
2023/03/10 01:39:01;;;;;;;7.23;3.57;;;;;;;;;;4981342;28;21017;-65
2023/03/10 01:41:27;;;;;;;7.57;2.97;;;;;;;;;;4985258;28;20462;-64
2023/03/10 02:19:03;;;;;;;8.13;2.90;;;;;;;;;;4955310;28;21215;-64
2023/03/10 02:21:30;;;;;;;5.97;3.07;;;;;;;;;;4963501;28;20997;-64
2023/03/10 02:24:09;;;;;;;6.90;3.13;;;;;;;;;;4960173;28;20549;-64
2023/03/10 02:26:54;;;;;;;7.00;3.30;;;;;;;;;;4961763;28;20537;-64
2023/03/10 02:29:31;;;;;;;6.27;3.20;;;;;;;;;;4957969;28;20461;-64
2023/03/10 02:31:58;;;;;;;5.47;3.40;;;;;;;;;;4962000;28;20504;-64
2023/03/10 02:34:24;;;;;;;6.43;3.60;;;;;;;;;;4955571;28;20551;-65
2023/03/10 02:36:51;;;;;;;6.03;3.30;;;;;;;;;;4959854;28;20830;-64
2023/03/10 02:39:18;;;;;;;6.60;3.17;;;;;;;;;;4961408;28;20989;-64
2023/03/10 02:41:44;;;;;;;8.60;3.87;;;;;;;;;;4963579;28;20487;-64
2023/03/10 02:44:16;;;;;;;5.83;3.20;;;;;;;;;;4976948;28;20460;-64
2023/03/10 02:46:43;;;;;;;7.13;3.87;;;;;;;;;;4962347;28;20463;-64
2023/03/10 02:49:09;;;;;;;8.03;4.03;;;;;;;;;;4961925;28;20463;-64
2023/03/10 02:51:43;;;;;;;8.87;4.70;;;;;;;;;;4945309;28;20453;-64
2023/03/10 02:54:12;;;;;;;10.43;4.33;;;;;;;;;;4963343;28;21062;-64
2023/03/10 02:56:41;;;;;;;8.77;4.43;;;;;;;;;;4960267;28;20472;-64
2023/03/10 02:59:09;;;;;;;7.20;4.53;;;;;;;;;;4960435;28;20527;-64
2023/03/10 03:01:41;;;;;;;6.67;4.63;;;;;;;;;;4945571;28;20516;-64
2023/03/10 03:04:07;;;;;;;11.63;5.30;;;;;;;;;;4961446;28;20457;-64
2023/03/10 03:06:34;;;;;;;8.97;5.23;;;;;;;;;;4958740;28;20491;-64
2023/03/10 03:09:01;;;;;;;10.93;5.73;;;;;;;;;;4961398;28;20900;-64
2023/03/10 03:11:29;;;;;;;10.83;5.10;;;;;;;;;;4943282;28;20504;-64
2023/03/10 03:13:56;;;;;;;7.20;5.00;;;;;;;;;;4968840;28;20543;-57
2023/03/10 03:16:23;;;;;;;9.60;5.80;;;;;;;;;;4962576;28;20460;-57
2023/03/10 03:18:55;;;;;;;9.53;4.73;;;;;;;;;;4949710;28;20530;-56
2023/03/10 03:21:22;;;;;;;9.17;5.47;;;;;;;;;;4981920;28;20851;-64
2023/03/10 03:23:49;;;;;;;8.33;5.50;;;;;;;;;;4967106;28;20525;-65
2023/03/10 03:26:20;;;;;;;10.60;5.80;;;;;;;;;;4984583;28;20454;-64
2023/03/10 03:28:48;;;;;;;10.23;7.45;;;;;;;;;;4982704;28;20783;-64
2023/03/10 03:31:20;;;;;;;11.57;6.63;;;;;;;;;;4993655;28;20251;-65
2023/03/10 03:33:49;;;;;;;9.07;5.93;;;;;;;;;;4984877;28;20475;-65
2023/03/10 03:36:17;;;;;;;10.73;5.83;;;;;;;;;;4964365;28;20462;-65
2023/03/10 03:38:44;;;;;;;11.03;6.13;;;;;;;;;;4981794;28;20476;-64
2023/03/10 03:41:12;;;;;;;10.67;5.90;;;;;;;;;;4980850;28;20509;-65
2023/03/10 03:43:39;;;;;;;10.37;6.50;;;;;;;;;;4982819;28;20470;-65
2023/03/10 03:46:06;;;;;;;12.07;6.27;;;;;;;;;;4980772;28;20469;-66
2023/03/10 03:48:34;;;;;;;8.30;5.73;;;;;;;;;;4974148;28;20469;-66
2023/03/10 03:51:04;;;;;;;10.07;6.13;;;;;;;;;;4975912;28;20470;-65
2023/03/10 03:53:38;;;;;;;10.57;6.50;;;;;;;;;;4980078;28;20466;-66
2023/03/10 03:56:05;;;;;;;9.13;6.20;;;;;;;;;;4992316;28;20455;-66
2023/03/10 03:58:34;;;;;;;9.53;6.23;;;;;;;;;;4979004;28;20861;-65
2023/03/10 04:01:01;;;;;;;11.03;7.00;;;;;;;;;;4996765;28;20545;-66
2023/03/10 04:03:33;;;;;;;10.80;6.23;;;;;;;;;;4981133;28;20473;-66
2023/03/10 04:06:00;;;;;;;12.83;7.43;;;;;;;;;;4983180;28;20501;-64
2023/03/10 04:08:27;;;;;;;11.47;7.10;;;;;;;;;;4980689;28;20454;-65
2023/03/10 04:10:54;;;;;;;15.63;8.50;;;;;;;;;;4977628;28;21005;-66
2023/03/10 04:13:24;;;;;;;13.23;8.90;;;;;;;;;;4984826;28;20466;-65
2023/03/10 04:15:55;;;;;;;13.93;9.03;;;;;;;;;;4981473;28;21517;-65
2023/03/10 04:18:23;;;;;;;13.93;8.37;;;;;;;;;;4981912;28;21056;-68
2023/03/10 04:20:50;;;;;;;13.47;7.83;;;;;;;;;;4981067;28;20451;-65
2023/03/10 04:23:18;;;;;;;13.17;8.33;;;;;;;;;;4977120;28;20470;-66
2023/03/10 04:25:45;;;;;;;13.90;8.20;;;;;;;;;;4980074;28;20943;-65
2023/03/10 04:28:13;;;;;;;11.83;8.00;;;;;;;;;;4983765;28;20783;-64
2023/03/10 04:30:41;;;;;;;12.83;8.57;;;;;;;;;;4985992;28;21008;-65
2023/03/10 04:33:08;;;;;;;14.10;7.60;;;;;;;;;;4984538;28;20515;-65
2023/03/10 04:35:38;;;;;;;13.03;8.23;;;;;;;;;;4970560;28;20537;-64
2023/03/10 04:38:04;;;;;;;12.90;8.50;;;;;;;;;;4985036;28;20458;-64
2023/03/10 04:40:32;;;;;;;16.53;8.70;;;;;;;;;;4984146;28;20553;-65
2023/03/10 04:42:59;;;;;;;13.90;8.53;;;;;;;;;;4986439;28;20489;-64
2023/03/10 04:45:27;;;;;;;15.20;8.47;;;;;;;;;;4984220;28;20473;-65
2023/03/10 04:47:54;;;;;;;14.80;9.10;;;;;;;;;;4976020;28;20501;-65
2023/03/10 04:50:20;;;;;;;12.70;8.50;;;;;;;;;;4996628;28;20461;-64
2023/03/10 04:52:49;;;;;;;11.87;8.83;;;;;;;;;;4981877;28;20458;-65
2023/03/10 04:55:18;;;;;;;17.40;9.63;;;;;;;;;;4986905;28;20470;-64
2023/03/10 04:57:45;;;;;;;14.47;8.37;;;;;;;;;;4985713;28;20453;-65
2023/03/10 05:00:11;;;;;;;18.20;10.03;;;;;;;;;;4996984;28;20549;-65
2023/03/10 05:02:39;;;;;;;16.87;9.53;;;;;;;;;;4983855;28;20528;-65
2023/03/10 05:05:07;;;;;;;13.80;10.33;;;;;;;;;;4986227;28;20516;-65
2023/03/10 05:07:35;;;;;;;13.40;9.17;;;;;;;;;;4967499;28;20807;-65
2023/03/10 05:10:02;;;;;;;15.73;9.63;;;;;;;;;;4986384;28;20466;-65
2023/03/10 05:12:29;;;;;;;13.57;8.90;;;;;;;;;;4984005;28;20457;-65
2023/03/10 05:14:56;;;;;;;14.37;8.10;;;;;;;;;;4985560;28;20521;-65
2023/03/10 05:17:23;;;;;;;14.90;9.43;;;;;;;;;;4980883;28;20528;-65
2023/03/10 05:19:49;;;;;;;13.37;9.17;;;;;;;;;;4988925;28;20467;-66
2023/03/10 05:22:16;;;;;;;14.57;9.07;;;;;;;;;;4984359;28;20472;-64
2023/03/10 05:24:43;;;;;;;14.27;9.43;;;;;;;;;;4997652;28;20461;-65
2023/03/10 05:27:11;;;;;;;13.00;8.87;;;;;;;;;;4981936;28;20961;-68
2023/03/10 05:29:41;;;;;;;14.13;9.13;;;;;;;;;;4983638;28;20989;-68
2023/03/10 05:32:15;;;;;;;13.87;8.90;;;;;;;;;;4978473;28;20621;-67
2023/03/10 05:34:45;;;;;;;15.00;8.37;;;;;;;;;;4981957;28;20455;-67
2023/03/10 05:37:11;;;;;;;12.03;8.57;;;;;;;;;;5003800;28;21086;-67
2023/03/10 05:39:38;;;;;;;13.90;8.63;;;;;;;;;;4982384;28;20893;-67
2023/03/10 05:42:11;;;;;;;13.70;8.90;;;;;;;;;;4982277;28;20457;-67
2023/03/10 05:44:39;;;;;;;16.77;9.40;;;;;;;;;;4986150;28;20545;-65
2023/03/10 05:47:06;;;;;;;14.37;9.13;;;;;;;;;;5005974;28;20537;-67
2023/03/10 05:49:33;;;;;;;13.80;9.43;;;;;;;;;;4986111;28;20505;-67
2023/03/10 05:52:02;;;;;;;14.07;8.63;;;;;;;;;;5000221;28;21082;-67
2023/03/10 05:54:29;;;;;;;14.63;9.33;;;;;;;;;;5005114;28;20470;-67
2023/03/10 05:56:56;;;;;;;14.47;8.87;;;;;;;;;;4982435;28;21028;-68
2023/03/10 05:59:25;;;;;;;17.70;9.43;;;;;;;;;;4947264;28;20467;-66
2023/03/10 06:01:53;;;;;;;16.13;10.23;;;;;;;;;;4973174;28;20503;-66
2023/03/10 06:04:19;;;;;;;15.17;9.03;;;;;;;;;;4997804;28;20466;-67
2023/03/10 06:06:46;;;;;;;12.87;8.90;;;;;;;;;;4990391;28;20466;-66
2023/03/10 06:09:13;;;;;;;16.63;9.00;;;;;;;;;;4984897;28;20490;-67
2023/03/10 06:11:40;;;;;;;14.50;9.00;;;;;;;;;;4994630;28;20470;-68
2023/03/10 06:14:07;;;;;;;13.53;8.67;;;;;;;;;;4993165;28;20488;-66
2023/03/10 06:16:33;;;;;;;15.07;9.37;;;;;;;;;;4989652;28;20451;-65
2023/03/10 06:19:00;;;;;;;13.77;8.60;;;;;;;;;;4991379;28;20513;-66
2023/03/10 06:21:28;;;;;;;14.77;9.17;;;;;;;;;;5001600;28;20457;-65
2023/03/10 06:23:55;;;;;;;12.93;8.23;;;;;;;;;;4996072;28;20518;-66
2023/03/10 06:26:23;;;;;;;15.57;9.37;;;;;;;;;;4993197;28;20524;-65
2023/03/10 06:28:50;;;;;;;14.87;9.50;;;;;;;;;;4981675;28;20462;-65
2023/03/10 06:31:20;;;;;;;16.07;9.17;;;;;;;;;;4985576;28;20460;-65
2023/03/10 06:33:46;;;;;;;14.13;8.87;;;;;;;;;;4999591;28;20462;-65
2023/03/10 06:36:13;;;;;;;12.93;8.70;;;;;;;;;;4996359;28;20537;-65
2023/03/10 06:38:40;;;;;;;14.53;8.97;;;;;;;;;;4984451;28;20504;-65
2023/03/10 06:41:06;;;;;;;15.30;8.73;;;;;;;;;;5005201;28;20880;-65
2023/03/10 06:43:33;;;;;;;14.23;8.70;;;;;;;;;;5003455;28;20470;-65
2023/03/10 06:46:01;;;;;;;14.57;8.57;;;;;;;;;;5005162;28;23714;-65
2023/03/10 06:48:28;;;;;;;13.57;8.70;;;;;;;;;;5003966;28;20528;-65
2023/03/10 06:50:55;;;;;;;13.17;8.27;;;;;;;;;;5004172;28;20466;-65
2023/03/10 06:53:21;;;;;;;14.87;8.80;;;;;;;;;;5000106;28;20864;-65
2023/03/10 06:56:01;;;;;;;11.47;8.10;;;;;;;;;;5001408;28;21055;-65
2023/03/10 06:58:28;;;;;;;13.03;9.03;;;;;;;;;;5003136;28;20465;-65
2023/03/10 07:00:55;;;;;;;12.67;8.37;;;;;;;;;;5004752;28;20466;-65
2023/03/10 07:03:24;;;;;;;12.47;8.50;;;;;;;;;;4987994;28;20458;-66
2023/03/10 07:05:51;;;;;;;14.60;8.07;;;;;;;;;;4981175;28;20469;-66
2023/03/10 07:08:18;;;;;;;12.83;8.10;;;;;;;;;;4998599;28;20541;-65
2023/03/10 07:10:45;;;;;;;15.20;8.43;;;;;;;;;;4990858;28;21040;-65
2023/03/10 07:13:16;;;;;;;14.20;8.30;;;;;;;;;;4991417;28;20463;-64
2023/03/10 07:15:43;;;;;;;11.70;7.50;;;;;;;;;;4990336;28;20465;-66
2023/03/10 07:18:10;;;;;;;12.20;8.33;;;;;;;;;;4987000;28;20536;-66
2023/03/10 07:20:40;;;;;;;11.80;7.90;;;;;;;;;;4988779;28;20466;-66
2023/03/10 07:23:07;;;;;;;12.03;8.10;;;;;;;;;;4964207;28;20818;-66
2023/03/10 07:25:34;;;;;;;12.50;8.03;;;;;;;;;;4990406;28;20551;-66
2023/03/10 07:28:01;;;;;;;12.33;7.73;;;;;;;;;;4989873;28;20549;-66
2023/03/10 07:30:28;;;;;;;12.07;8.37;;;;;;;;;;4991996;28;21034;-67
2023/03/10 07:32:55;;;;;;;12.87;8.37;;;;;;;;;;4978252;28;20456;-65
2023/03/10 07:35:22;;;;;;;13.93;7.93;;;;;;;;;;4991616;28;20497;-65
2023/03/10 07:37:48;;;;;;;11.33;7.93;;;;;;;;;;4986787;28;20472;-64
2023/03/10 07:40:15;;;;;;;13.40;8.30;;;;;;;;;;4986376;28;20572;-65
2023/03/10 07:42:42;;;;;;;13.40;8.07;;;;;;;;;;4987694;28;20462;-65
2023/03/10 07:45:09;;;;;;;11.67;8.17;;;;;;;;;;4980628;28;20454;-66
2023/03/10 07:47:36;;;;;;;12.23;7.70;;;;;;;;;;4981193;28;20467;-66
2023/03/10 07:50:02;;;;;;;12.33;8.33;;;;;;;;;;4990673;28;20504;-66
2023/03/10 07:52:29;;;;;;;12.23;8.33;;;;;;;;;;4990471;28;20449;-65
2023/03/10 07:54:56;;;;;;;10.23;7.47;;;;;;;;;;4989636;28;20454;-66
2023/03/10 07:57:22;;;;;;;12.83;7.93;;;;;;;;;;4981379;28;403418;-66
2023/03/10 07:59:49;;;;;;;13.67;7.87;;;;;;;;;;4997295;28;20468;-65
2023/03/10 08:02:16;;;;;;;11.10;6.97;;;;;;;;;;4991290;28;20462;-65
2023/03/10 08:04:42;;;;;;;11.37;7.13;;;;;;;;;;4986983;28;21126;-65
2023/03/10 08:07:09;;;;;;;11.17;7.80;;;;;;;;;;4983424;28;21159;-66
2023/03/10 08:09:36;;;;;;;12.43;8.07;;;;;;;;;;4998796;28;20446;-64
2023/03/10 08:12:03;;;;;;;11.57;8.20;;;;;;;;;;4986528;28;20470;-64
2023/03/10 08:14:30;;;;;;;11.70;8.40;;;;;;;;;;4992265;28;20874;-66
2023/03/10 08:16:57;;;;;;;13.43;7.57;;;;;;;;;;4979927;28;20471;-65
2023/03/10 08:19:23;;;;;;;12.37;7.77;;;;;;;;;;4984412;28;20474;-65
2023/03/10 08:21:52;;;;;;;13.13;8.33;;;;;;;;;;4975449;28;20481;-66
2023/03/10 08:24:19;;;;;;;11.63;8.53;;;;;;;;;;4981277;28;20470;-66
2023/03/10 08:26:46;;;;;;;10.53;7.07;;;;;;;;;;4975783;28;20460;-66
2023/03/10 08:29:12;;;;;;;10.00;7.70;;;;;;;;;;4973073;28;20498;-65
2023/03/10 08:31:39;;;;;;;10.50;7.53;;;;;;;;;;4972267;28;20508;-65
2023/03/10 08:34:06;;;;;;;13.00;8.20;;;;;;;;;;4979452;28;20540;-65
2023/03/10 08:36:33;;;;;;;12.93;7.67;;;;;;;;;;4974118;28;20535;-65
2023/03/10 08:39:01;;;;;;;11.13;7.90;;;;;;;;;;4972478;28;20462;-65
2023/03/10 08:41:27;;;;;;;13.57;7.70;;;;;;;;;;4974537;28;20442;-65
2023/03/10 08:43:54;;;;;;;11.70;7.60;;;;;;;;;;4970722;28;20463;-64
2023/03/10 08:46:39;;;;;;;10.57;7.17;;;;;;;;;;4973583;28;20453;-64
2023/03/10 08:49:06;;;;;;;13.23;7.70;;;;;;;;;;4974438;28;20478;-65
2023/03/10 08:51:33;;;;;;;10.97;7.27;;;;;;;;;;4970784;28;20476;-64
2023/03/10 08:54:00;;;;;;;10.57;7.03;;;;;;;;;;4970326;28;20478;-65
2023/03/10 08:56:26;;;;;;;9.97;7.20;;;;;;;;;;4975181;28;20462;-64
2023/03/10 08:58:57;;;;;;;11.37;7.03;;;;;;;;;;4972064;28;20512;-65
2023/03/10 09:01:25;;;;;;;10.53;7.17;;;;;;;;;;4976036;28;20459;-64
2023/03/10 09:03:52;;;;;;;13.23;7.80;;;;;;;;;;4969891;28;21048;-65
2023/03/10 09:06:18;;;;;;;11.17;6.80;;;;;;;;;;4975937;28;20466;-64
2023/03/10 09:08:47;;;;;;;10.73;6.93;;;;;;;;;;4971198;28;20451;-64
2023/03/10 09:11:14;;;;;;;10.70;6.93;;;;;;;;;;4978465;28;20804;-63
2023/03/10 09:13:41;;;;;;;8.70;6.40;;;;;;;;;;4976038;28;20989;-64
2023/03/10 09:16:12;;;;;;;12.43;6.50;;;;;;;;;;4971519;28;21240;-63
2023/03/10 09:18:39;;;;;;;8.60;6.97;;;;;;;;;;4993468;28;20544;-64
2023/03/10 09:21:06;;;;;;;8.40;6.47;;;;;;;;;;4984850;28;22343;-65
2023/03/10 09:23:32;;;;;;;9.47;6.23;;;;;;;;;;4993245;28;20478;-64
2023/03/10 09:25:59;;;;;;;8.80;6.00;;;;;;;;;;4993808;28;20502;-64
2023/03/10 09:28:27;;;;;;;8.20;6.10;;;;;;;;;;4990071;28;20458;-64
2023/03/10 09:30:54;;;;;;;8.07;6.07;;;;;;;;;;4991098;28;20458;-64
2023/03/10 09:33:20;;;;;;;7.70;5.60;;;;;;;;;;4994686;28;20451;-64
2023/03/10 09:35:48;;;;;;;8.40;6.00;;;;;;;;;;5001493;28;20466;-64
2023/03/10 09:38:31;;;;;;;7.80;5.70;;;;;;;;;;5000246;28;20946;-65
2023/03/10 09:40:58;;;;;;;7.27;5.80;;;;;;;;;;4996463;28;20957;-64
2023/03/10 09:43:24;;;;;;;9.67;5.70;;;;;;;;;;4995963;28;20530;-64
2023/03/10 09:45:56;;;;;;;7.63;5.83;;;;;;;;;;5002166;28;20466;-64
2023/03/10 09:48:28;;;;;;;7.77;5.93;;;;;;;;;;4990970;28;20542;-65
2023/03/10 09:50:55;;;;;;;7.77;5.60;;;;;;;;;;4992975;28;20455;-65
2023/03/10 09:53:39;;;;;;;9.37;6.57;;;;;;;;;;4983641;28;21262;-64
2023/03/10 09:56:33;;;;;;;10.00;6.97;;;;;;;;;;4980636;28;31913;-64
2023/03/10 09:59:08;;;;;;;9.97;7.20;;;;;;;;;;4987550;28;20454;-63
2023/03/10 10:01:53;;;;;;;10.83;7.23;;;;;;;;;;4966592;28;20900;-64
2023/03/10 10:04:20;;;;;;;10.17;7.20;;;;;;;;;;4985226;28;20467;-64
2023/03/10 10:06:47;;;;;;;11.87;6.97;;;;;;;;;;4991289;28;20458;-64
2023/03/10 10:09:19;;;;;;;9.60;6.50;;;;;;;;;;4986134;28;20453;-64
2023/03/10 10:11:46;;;;;;;10.33;6.93;;;;;;;;;;4989532;28;20475;-64
2023/03/10 10:14:13;;;;;;;11.27;6.83;;;;;;;;;;4990713;28;20462;-64
2023/03/10 10:17:03;;;;;;;14.00;7.53;;;;;;;;;;4987699;28;20621;-65
2023/03/10 10:19:30;;;;;;;10.00;6.40;;;;;;;;;;4995414;28;20998;-65
2023/03/10 10:22:01;;;;;;;11.50;7.47;;;;;;;;;;5017280;28;21329;-64
2023/03/10 10:24:28;;;;;;;12.30;8.13;;;;;;;;;;4994161;28;20462;-65
2023/03/10 10:26:55;;;;;;;13.30;7.87;;;;;;;;;;5000594;28;20227;-64
2023/03/10 10:29:27;;;;;;;16.63;8.70;;;;;;;;;;5015848;28;20498;-63
2023/03/10 10:32:03;;;;;;;9.60;6.40;;;;;;;;;;5007824;28;20545;-63
2023/03/10 10:34:31;;;;;;;11.33;6.30;;;;;;;;;;5015156;28;20465;-64
2023/03/10 10:36:58;;;;;;;10.77;6.63;;;;;;;;;;5003168;28;20462;-64
2023/03/10 10:39:25;;;;;;;8.33;6.20;;;;;;;;;;5001824;28;20515;-64
2023/03/10 10:41:53;;;;;;;9.77;6.57;;;;;;;;;;5008480;28;20480;-62
2023/03/10 10:44:20;;;;;;;11.37;6.90;;;;;;;;;;5010781;28;20253;-64
2023/03/10 10:46:51;;;;;;;12.33;6.53;;;;;;;;;;5005945;28;20459;-63
2023/03/10 10:49:18;;;;;;;11.50;7.00;;;;;;;;;;5007755;28;20450;-63
2023/03/10 10:51:54;;;;;;;9.70;6.20;;;;;;;;;;5019866;28;20554;-63
2023/03/10 10:54:27;;;;;;;7.90;5.90;;;;;;;;;;5016020;28;20234;-63
2023/03/10 10:56:54;;;;;;;9.87;5.70;;;;;;;;;;5004298;28;20469;-65
2023/03/10 10:59:23;;;;;;;18.87;8.43;;;;;;;;;;5007692;28;20509;-64
2023/03/10 11:01:54;;;;;;;14.67;7.77;;;;;;;;;;4985362;28;20474;-64
2023/03/10 11:04:21;;;;;;;9.63;5.73;;;;;;;;;;5009262;28;20464;-64
2023/03/10 13:54:19;;;;;;;4.97;4.10;;;;;;;;;;3959795;28;22786;-70
2023/03/10 13:56:46;;;;;;;9.53;5.73;;;;;;;;;;4974673;28;20271;-70
2023/03/10 13:59:18;;;;;;;8.97;5.40;;;;;;;;;;4974458;28;20460;-71
2023/03/10 14:01:48;;;;;;;7.43;4.90;;;;;;;;;;4963374;28;20471;-70
2023/03/10 14:04:36;;;;;;;9.33;5.23;;;;;;;;;;4964944;28;20475;-71
2023/03/10 14:07:17;;;;;;;10.20;6.33;;;;;;;;;;4973963;28;20458;-72
2023/03/10 14:09:44;;;;;;;11.43;5.90;;;;;;;;;;4972269;28;20459;-70
2023/03/10 14:12:11;;;;;;;7.30;4.60;;;;;;;;;;4976877;28;20477;-71
2023/03/10 14:14:40;;;;;;;9.57;5.57;;;;;;;;;;4966173;28;20229;-70
2023/03/10 14:17:27;;;;;;;10.87;6.43;;;;;;;;;;4972427;28;20459;-70
2023/03/10 14:19:54;;;;;;;12.83;6.63;;;;;;;;;;4976010;28;20460;-73
2023/03/10 14:22:23;;;;;;;9.13;4.30;;;;;;;;;;4951235;28;20517;-70
2023/03/10 14:24:50;;;;;;;5.53;3.53;;;;;;;;;;4973567;28;20476;-70
2023/03/10 14:27:17;;;;;;;7.13;4.50;;;;;;;;;;4965779;28;20470;-70
2023/03/10 14:29:50;;;;;;;10.70;4.63;;;;;;;;;;4971030;28;20467;-70
2023/03/10 14:32:17;;;;;;;12.23;4.83;;;;;;;;;;4973284;28;20451;-70
2023/03/10 14:34:44;;;;;;;6.10;4.10;;;;;;;;;;4975736;28;20547;-70
2023/03/10 14:37:11;;;;;;;14.37;6.23;;;;;;;;;;4973702;28;20467;-70
2023/03/10 14:39:38;;;;;;;11.07;6.30;;;;;;;;;;4971560;28;20490;-70
2023/03/10 14:42:05;;;;;;;8.73;5.70;;;;;;;;;;4970291;28;21056;-70
2023/03/10 14:44:32;;;;;;;8.27;5.30;;;;;;;;;;4972386;28;20466;-71
2023/03/10 14:47:00;;;;;;;8.53;5.53;;;;;;;;;;4960643;28;20543;-70
2023/03/10 14:49:27;;;;;;;13.30;5.30;;;;;;;;;;4973843;28;20475;-73
2023/03/10 14:51:54;;;;;;;6.87;5.00;;;;;;;;;;4977714;28;20550;-70
2023/03/10 14:54:21;;;;;;;10.97;4.47;;;;;;;;;;4973472;28;20476;-70
2023/03/10 14:56:52;;;;;;;10.30;5.47;;;;;;;;;;4976747;28;20483;-70
2023/03/10 14:59:19;;;;;;;10.80;6.10;;;;;;;;;;4964420;28;20966;-70
2023/03/10 15:01:45;;;;;;;10.73;5.30;;;;;;;;;;4979016;28;20603;-69
2023/03/10 15:04:13;;;;;;;12.93;5.97;;;;;;;;;;4973315;28;20513;-70
2023/03/10 15:06:40;;;;;;;15.30;8.07;;;;;;;;;;4971880;28;20467;-70
2023/03/10 15:09:07;;;;;;;10.97;6.33;;;;;;;;;;4974664;28;20482;-68
2023/03/10 15:11:34;;;;;;;10.43;6.40;;;;;;;;;;4973263;28;20456;-69
2023/03/10 15:14:14;;;;;;;9.67;5.80;;;;;;;;;;4962991;28;21217;-55
2023/03/10 15:16:41;;;;;;;10.23;5.87;;;;;;;;;;4963519;28;20801;-54
2023/03/10 15:19:12;;;;;;;22.17;11.07;;;;;;;;;;4976618;28;20468;-55
2023/03/10 15:21:41;;;;;;;26.63;15.10;;;;;;;;;;4973563;28;20466;-53
2023/03/10 15:24:09;;;;;;;22.20;15.90;;;;;;;;;;4971397;28;20463;-55
2023/03/10 15:26:36;;;;;;;11.10;5.53;;;;;;;;;;4975068;28;20468;-70
2023/03/10 15:29:03;;;;;;;13.93;5.77;;;;;;;;;;4889278;28;20467;-74
2023/03/10 15:31:30;;;;;;;16.43;9.20;;;;;;;;;;4957024;28;20474;-71
2023/03/10 15:33:57;;;;;;;19.07;9.80;;;;;;;;;;4943018;28;20503;-73
2023/03/10 15:36:24;;;;;;;14.47;7.77;;;;;;;;;;4963132;28;20452;-72
2023/03/10 15:38:51;;;;;;;32.10;14.13;;;;;;;;;;4931158;28;20998;-72
2023/03/10 15:41:19;;;;;;;17.67;7.90;;;;;;;;;;4943896;28;223308;-74
2023/03/10 15:43:46;;;;;;;10.40;6.23;;;;;;;;;;4959947;28;20452;-73
2023/03/10 15:46:12;;;;;;;17.50;9.33;;;;;;;;;;4963811;28;20928;-73
2023/03/10 15:48:39;;;;;;;22.13;10.87;;;;;;;;;;4960959;28;20471;-73
2023/03/10 15:51:07;;;;;;;18.23;8.37;;;;;;;;;;4964761;28;20827;-73
2023/03/10 15:53:37;;;;;;;17.77;7.17;;;;;;;;;;4962133;28;20472;-73
2023/03/10 15:56:05;;;;;;;26.83;13.10;;;;;;;;;;4962416;28;20462;-74
2023/03/10 15:58:32;;;;;;;22.37;12.67;;;;;;;;;;4964236;28;20491;-73
2023/03/10 16:01:19;;;;;;;10.57;7.30;;;;;;;;;;4961830;28;20242;-73
2023/03/10 16:03:47;;;;;;;19.50;8.70;;;;;;;;;;4962131;28;20478;-73
2023/03/10 16:06:32;;;;;;;11.13;6.00;;;;;;;;;;4962258;28;20808;-73
2023/03/10 16:09:03;;;;;;;15.80;7.30;;;;;;;;;;4962819;28;20547;-73
2023/03/10 16:11:30;;;;;;;9.87;5.60;;;;;;;;;;4961834;28;20466;-73
2023/03/10 16:13:57;;;;;;;11.37;6.80;;;;;;;;;;4963919;28;20963;-73
2023/03/10 16:16:25;;;;;;;16.70;8.63;;;;;;;;;;4964481;28;20247;-74
2023/03/10 16:18:52;;;;;;;13.37;8.10;;;;;;;;;;4981257;28;20462;-74
2023/03/10 16:21:19;;;;;;;12.57;7.40;;;;;;;;;;4980305;28;20476;-75
2023/03/10 16:23:46;;;;;;;13.57;8.40;;;;;;;;;;4977326;28;20457;-75
2023/03/10 16:26:17;;;;;;;13.27;8.00;;;;;;;;;;4983025;28;20486;-75
2023/03/10 16:28:45;;;;;;;13.07;7.83;;;;;;;;;;4967923;28;20475;-74
2023/03/10 16:31:12;;;;;;;12.23;7.63;;;;;;;;;;4951294;28;20464;-75
2023/03/10 16:33:42;;;;;;;12.33;8.03;;;;;;;;;;4928714;28;20623;-77
2023/03/10 16:36:11;;;;;;;17.03;10.00;;;;;;;;;;4953154;28;20540;-78
2023/03/10 16:38:40;;;;;;;15.83;8.67;;;;;;;;;;4966225;28;20465;-74
2023/03/10 16:41:09;;;;;;;22.70;9.37;;;;;;;;;;4989236;28;20840;-74
2023/03/10 16:43:37;;;;;;;27.60;12.93;;;;;;;;;;4977785;28;20474;-75
2023/03/10 16:46:10;;;;;;;26.83;14.30;;;;;;;;;;4986301;28;20475;-77
2023/03/10 16:48:40;;;;;;;16.23;8.70;;;;;;;;;;4921009;28;20467;-75
2023/03/10 16:51:17;;;;;;;15.37;8.63;;;;;;;;;;4953703;28;20475;-74
2023/03/10 16:53:44;;;;;;;17.10;8.70;;;;;;;;;;4984542;28;20532;-77
2023/03/10 16:56:13;;;;;;;21.37;10.30;;;;;;;;;;4987896;28;20499;-76
2023/03/10 16:58:39;;;;;;;38.13;21.50;;;;;;;;;;4988482;28;20454;-76
2023/03/10 17:01:06;;;;;;;15.63;10.03;;;;;;;;;;4989278;28;20505;-76
2023/03/10 17:03:38;;;;;;;19.23;10.93;;;;;;;;;;4962748;28;20466;-75
2023/03/10 17:06:09;;;;;;;17.60;10.87;;;;;;;;;;4982570;28;21092;-76
2023/03/10 17:08:36;;;;;;;11.80;8.63;;;;;;;;;;4959745;28;20470;-76
2023/03/10 17:11:04;;;;;;;15.03;8.70;;;;;;;;;;4967662;28;20520;-75
2023/03/10 17:13:31;;;;;;;9.37;7.27;;;;;;;;;;4982317;28;20462;-74
2023/03/10 17:15:59;;;;;;;13.83;9.07;;;;;;;;;;4990267;28;20462;-75
2023/03/10 17:18:26;;;;;;;14.20;10.07;;;;;;;;;;4935062;28;20796;-74
2023/03/10 17:20:53;;;;;;;8.63;6.67;;;;;;;;;;4978863;28;20474;-75
2023/03/10 17:23:22;;;;;;;19.60;12.40;;;;;;;;;;4985995;28;20231;-75
2023/03/10 17:25:50;;;;;;;16.03;10.20;;;;;;;;;;4985659;28;23654;-75
2023/03/10 17:28:17;;;;;;;16.30;9.70;;;;;;;;;;4989692;28;20227;-75
2023/03/10 17:30:44;;;;;;;17.90;11.43;;;;;;;;;;4983236;28;23638;-74
2023/03/10 17:33:11;;;;;;;12.00;8.23;;;;;;;;;;4960142;28;20232;-75
2023/03/10 17:35:37;;;;;;;13.87;9.30;;;;;;;;;;4982843;28;20290;-75
2023/03/10 17:38:06;;;;;;;14.00;9.20;;;;;;;;;;4932556;28;20487;-71
2023/03/10 17:40:33;;;;;;;16.87;10.17;;;;;;;;;;4962943;28;20471;-71
2023/03/10 17:43:01;;;;;;;15.43;10.13;;;;;;;;;;4958065;28;230434;-72
2023/03/10 17:45:54;;;;;;;11.90;8.93;;;;;;;;;;4948368;28;20451;-72
2023/03/10 17:48:24;;;;;;;14.13;9.23;;;;;;;;;;4986030;28;20468;-72
2023/03/10 17:50:50;;;;;;;10.83;7.27;;;;;;;;;;4976519;28;20945;-72
2023/03/10 17:53:17;;;;;;;11.63;7.50;;;;;;;;;;4968513;28;20505;-70
2023/03/10 17:55:44;;;;;;;13.97;8.07;;;;;;;;;;4957830;28;20469;-70
2023/03/10 17:58:13;;;;;;;9.33;6.70;;;;;;;;;;4978667;28;20259;-72
2023/03/10 18:00:40;;;;;;;10.47;7.57;;;;;;;;;;4951173;28;20461;-70
2023/03/10 18:03:06;;;;;;;13.60;8.10;;;;;;;;;;4917862;28;20477;-70
2023/03/10 18:05:40;;;;;;;12.70;7.70;;;;;;;;;;4976801;28;20524;-70